createdAt,value
2018-02-19T00:01:30.032Z,82.87
2018-02-19T00:03:57.708Z,83.49
2018-02-19T00:06:25.271Z,83.15
2018-02-19T00:08:52.834Z,82.72
2018-02-19T00:11:20.618Z,83.14
2018-02-19T00:13:49.131Z,83.32
2018-02-19T00:16:16.734Z,83.48
2018-02-19T00:18:44.475Z,83.43
2018-02-19T00:21:12.097Z,82.65
2018-02-19T00:23:39.663Z,83.05
2018-02-19T00:26:07.240Z,83.32
2018-02-19T00:28:34.813Z,82.93
2018-02-19T00:31:02.374Z,83.15
2018-02-19T00:33:30.183Z,83.17
2018-02-19T00:35:57.758Z,82.96
2018-02-19T00:38:25.331Z,82.98
2018-02-19T00:40:53.139Z,83.00
2018-02-19T00:43:20.750Z,82.93
2018-02-19T00:45:48.322Z,82.75
2018-02-19T00:48:15.882Z,82.94
2018-02-19T00:50:43.502Z,82.95
2018-02-19T00:53:11.106Z,82.81
2018-02-19T00:55:38.694Z,82.47
2018-02-19T00:58:06.293Z,82.86
2018-02-19T01:00:33.858Z,82.94
2018-02-19T01:03:01.667Z,82.37
2018-02-19T01:05:29.233Z,83.15
2018-02-19T01:07:57.033Z,83.79
2018-02-19T01:10:24.623Z,83.49
2018-02-19T01:12:52.182Z,82.78
2018-02-19T01:15:19.813Z,82.96
2018-02-19T01:17:47.505Z,82.95
2018-02-19T01:20:15.516Z,82.69
2018-02-19T01:22:43.082Z,82.47
2018-02-19T01:25:10.829Z,82.73
2018-02-19T01:27:38.407Z,83.06
2018-02-19T01:30:05.974Z,83.32
2018-02-19T01:32:33.538Z,83.01
2018-02-19T01:35:01.110Z,83.30
2018-02-19T01:37:28.812Z,82.78
2018-02-19T01:39:56.671Z,82.30
2018-02-19T01:42:24.367Z,82.34
2018-02-19T01:44:51.979Z,82.16
2018-02-19T01:47:19.609Z,82.11
2018-02-19T01:49:59.033Z,81.47
2018-02-19T01:52:26.603Z,81.52
2018-02-19T01:54:54.166Z,81.94
2018-02-19T01:57:21.738Z,82.62
2018-02-19T01:59:49.297Z,82.89
2018-02-19T02:02:17.070Z,82.99
2018-02-19T02:04:44.695Z,82.57
2018-02-19T02:07:12.338Z,82.49
2018-02-19T02:09:40.039Z,83.44
2018-02-19T02:12:07.844Z,83.62
2018-02-19T02:14:35.417Z,83.65
2018-02-19T02:17:02.978Z,83.83
2018-02-19T02:19:30.583Z,84.23
2018-02-19T02:21:58.276Z,83.48
2018-02-19T02:24:25.901Z,82.87
2018-02-19T02:26:53.650Z,83.72
2018-02-19T02:29:21.206Z,83.92
2018-02-19T02:31:48.989Z,83.28
2018-02-19T02:34:16.685Z,83.57
2018-02-19T02:36:44.247Z,83.57
2018-02-19T02:39:11.918Z,82.92
2018-02-19T02:41:39.759Z,82.60
2018-02-19T02:44:07.331Z,82.71
2018-02-19T02:46:34.962Z,82.71
2018-02-19T02:49:02.682Z,83.28
2018-02-19T02:51:30.231Z,83.01
2018-02-19T02:53:57.791Z,83.08
2018-02-19T02:56:25.570Z,82.68
2018-02-19T02:58:53.182Z,82.71
2018-02-19T03:01:20.792Z,82.95
2018-02-19T03:03:48.368Z,83.42
2018-02-19T03:06:15.915Z,82.90
2018-02-19T03:08:43.470Z,82.54
2018-02-19T03:11:11.042Z,82.97
2018-02-19T03:13:38.638Z,83.96
2018-02-19T03:16:06.254Z,84.50
2018-02-19T03:18:33.817Z,85.22
2018-02-19T03:21:01.520Z,85.39
2018-02-19T03:23:29.086Z,85.93
2018-02-19T03:25:56.880Z,86.12
2018-02-19T03:28:24.450Z,85.84
2018-02-19T03:30:52.182Z,85.71
2018-02-19T03:33:20.042Z,85.51
2018-02-19T03:35:47.645Z,85.81
2018-02-19T03:38:15.265Z,85.84
2018-02-19T03:40:42.834Z,85.87
2018-02-19T03:43:10.398Z,85.57
2018-02-19T03:45:37.977Z,85.74
2018-02-19T03:48:05.745Z,85.94
2018-02-19T03:50:33.369Z,86.10
2018-02-19T03:53:00.934Z,86.05
2018-02-19T03:55:28.673Z,86.36
2018-02-19T03:57:56.246Z,86.64
2018-02-19T04:00:24.002Z,86.61
2018-02-19T04:02:51.717Z,86.40
2018-02-19T04:05:19.274Z,86.27
2018-02-19T04:07:46.895Z,85.92
2018-02-19T04:10:14.670Z,86.19
2018-02-19T04:12:42.221Z,86.36
2018-02-19T04:15:09.822Z,86.05
2018-02-19T04:17:37.406Z,86.53
2018-02-19T04:20:04.989Z,86.14
2018-02-19T04:22:32.550Z,85.88
2018-02-19T04:25:00.162Z,86.17
2018-02-19T04:27:27.821Z,86.03
2018-02-19T04:29:55.378Z,86.02
2018-02-19T04:32:23.171Z,85.72
2018-02-19T04:34:50.731Z,85.76
2018-02-19T04:37:18.275Z,85.53
2018-02-19T04:39:45.911Z,85.79
2018-02-19T04:42:13.796Z,85.41
2018-02-19T04:44:42.239Z,85.12
2018-02-19T04:47:09.834Z,85.22
2018-02-19T04:49:37.398Z,85.10
2018-02-19T04:52:05.091Z,85.33
2018-02-19T04:54:32.721Z,84.74
2018-02-19T04:57:00.291Z,84.54
2018-02-19T04:59:28.167Z,84.28
2018-02-19T05:01:55.899Z,84.16
2018-02-19T05:04:23.466Z,84.19
2018-02-19T05:06:51.026Z,84.07
2018-02-19T05:09:18.842Z,83.29
2018-02-19T05:11:46.415Z,83.44
2018-02-19T05:14:14.062Z,83.50
2018-02-19T05:16:41.690Z,83.43
2018-02-19T05:19:09.266Z,83.16
2018-02-19T05:21:36.845Z,82.43
2018-02-19T05:24:04.410Z,82.39
2018-02-19T05:26:31.966Z,82.42
2018-02-19T05:28:59.558Z,82.38
2018-02-19T05:31:27.128Z,82.31
2018-02-19T05:33:54.749Z,81.41
2018-02-19T05:36:22.307Z,81.36
2018-02-19T05:38:49.862Z,82.29
2018-02-19T05:41:17.430Z,82.55
2018-02-19T05:43:44.991Z,81.16
2018-02-19T05:46:12.596Z,82.18
2018-02-19T05:48:40.384Z,82.83
2018-02-19T05:51:08.017Z,82.74
2018-02-19T05:53:35.640Z,81.36
2018-02-19T05:56:03.201Z,81.50
2018-02-19T05:58:30.954Z,82.46
2018-02-19T06:00:58.510Z,82.81
2018-02-19T06:03:26.078Z,82.73
2018-02-19T06:05:53.762Z,82.84
2018-02-19T06:08:21.377Z,82.49
2018-02-19T06:10:48.969Z,81.95
2018-02-19T06:13:16.538Z,82.00
2018-02-19T06:15:44.327Z,82.81
2018-02-19T06:18:11.892Z,82.31
2018-02-19T06:20:39.454Z,82.45
2018-02-19T06:23:07.010Z,82.27
2018-02-19T06:25:34.633Z,82.15
2018-02-19T06:28:02.233Z,81.94
2018-02-19T06:30:29.798Z,81.61
2018-02-19T06:32:57.370Z,82.13
2018-02-19T06:35:24.930Z,80.92
2018-02-19T06:37:52.507Z,81.71
2018-02-19T06:40:20.300Z,82.13
2018-02-19T06:42:47.922Z,81.76
2018-02-19T06:45:15.505Z,82.20
2018-02-19T06:47:43.148Z,81.84
2018-02-19T06:50:10.721Z,81.70
2018-02-19T06:52:38.489Z,82.08
2018-02-19T06:55:06.307Z,81.95
2018-02-19T06:57:34.025Z,82.00
2018-02-19T07:00:01.661Z,81.26
2018-02-19T07:02:29.462Z,81.42
2018-02-19T07:04:57.181Z,81.02
2018-02-19T07:07:24.998Z,79.90
2018-02-19T07:09:52.563Z,79.99
2018-02-19T07:12:20.129Z,80.43
2018-02-19T07:14:47.856Z,81.62
2018-02-19T07:17:15.486Z,82.38
2018-02-19T07:19:43.073Z,82.74
2018-02-19T07:22:10.636Z,81.37
2018-02-19T07:24:38.211Z,80.98
2018-02-19T07:27:07.847Z,79.86
2018-02-19T07:29:35.852Z,79.75
2018-02-19T07:32:03.464Z,80.83
2018-02-19T07:34:31.305Z,81.64
2018-02-19T07:36:58.869Z,81.48
2018-02-19T07:39:26.973Z,81.63
2018-02-19T07:41:54.554Z,81.70
2018-02-19T07:44:22.839Z,80.83
2018-02-19T07:46:50.474Z,80.87
2018-02-19T07:49:18.373Z,81.29
2018-02-19T07:51:46.015Z,81.48
2018-02-19T07:54:13.707Z,81.39
2018-02-19T07:56:41.299Z,80.01
2018-02-19T07:59:08.981Z,79.95
2018-02-19T08:01:36.808Z,80.30
2018-02-19T08:04:04.538Z,80.00
2018-02-19T08:06:32.110Z,80.66
2018-02-19T08:08:59.755Z,80.35
2018-02-19T08:11:27.582Z,80.30
2018-02-19T08:13:55.222Z,79.48
2018-02-19T08:16:22.806Z,79.70
2018-02-19T08:18:50.368Z,80.56
2018-02-19T08:21:18.006Z,80.21
2018-02-19T08:23:45.574Z,80.86
2018-02-19T08:26:13.388Z,81.02
2018-02-19T08:28:41.106Z,81.64
2018-02-19T08:31:08.762Z,81.01
2018-02-19T08:33:36.340Z,80.39
2018-02-19T08:36:04.004Z,80.52
2018-02-19T08:38:31.669Z,80.51
2018-02-19T08:40:59.398Z,80.56
2018-02-19T08:43:27.214Z,80.21
2018-02-19T08:45:54.932Z,78.84
2018-02-19T08:48:22.500Z,79.41
2018-02-19T08:50:50.066Z,79.72
2018-02-19T08:53:17.636Z,78.63
2018-02-19T08:55:45.294Z,78.47
2018-02-19T08:58:12.842Z,80.36
2018-02-19T09:00:40.454Z,81.57
2018-02-19T09:03:07.995Z,82.11
2018-02-19T09:05:35.555Z,81.81
2018-02-19T09:08:03.292Z,81.97
2018-02-19T09:10:30.854Z,82.70
2018-02-19T09:12:58.634Z,82.85
2018-02-19T09:15:26.182Z,82.81
2018-02-19T09:17:54.065Z,83.00
2018-02-19T09:20:21.784Z,82.37
2018-02-19T09:22:49.602Z,81.71
2018-02-19T09:25:17.420Z,81.30
2018-02-19T09:27:45.029Z,83.05
2018-02-19T09:30:12.647Z,83.21
2018-02-19T09:32:40.220Z,84.06
2018-02-19T09:35:07.843Z,81.81
2018-02-19T09:37:35.665Z,81.39
2018-02-19T09:40:03.279Z,81.75
2018-02-19T09:42:30.843Z,81.17
2018-02-19T09:44:58.563Z,81.70
2018-02-19T09:47:26.383Z,82.31
2018-02-19T09:49:54.079Z,81.94
2018-02-19T09:52:21.920Z,81.22
2018-02-19T09:54:49.467Z,81.04
2018-02-19T09:57:17.022Z,81.27
2018-02-19T09:59:44.680Z,81.96
2018-02-19T10:02:12.491Z,81.53
2018-02-19T10:04:40.072Z,82.13
2018-02-19T10:07:07.785Z,82.41
2018-02-19T10:09:35.401Z,83.22
2018-02-19T10:12:03.127Z,83.26
2018-02-19T10:14:30.844Z,83.01
2018-02-19T10:16:58.583Z,83.26
2018-02-19T10:19:26.143Z,83.59
2018-02-19T10:21:53.720Z,83.69
2018-02-19T10:24:21.306Z,83.28
2018-02-19T10:26:48.929Z,83.89
2018-02-19T10:29:16.475Z,83.92
2018-02-19T10:31:44.074Z,82.77
2018-02-19T10:34:11.824Z,82.59
2018-02-19T10:36:39.393Z,81.93
2018-02-19T10:39:07.261Z,81.94
2018-02-19T10:41:35.082Z,83.57
2018-02-19T10:44:02.900Z,82.85
2018-02-19T10:46:30.717Z,83.67
2018-02-19T10:48:58.278Z,83.87
2018-02-19T10:51:26.035Z,84.11
2018-02-19T10:53:53.771Z,83.25
2018-02-19T10:56:21.589Z,83.71
2018-02-19T10:58:49.158Z,84.92
2018-02-19T11:01:16.694Z,85.27
2018-02-19T11:03:44.310Z,84.53
2018-02-19T11:06:11.952Z,84.08
2018-02-19T11:08:39.502Z,84.46
2018-02-19T11:11:07.088Z,84.70
2018-02-19T11:13:34.777Z,84.27
2018-02-19T11:16:02.426Z,84.75
2018-02-19T11:18:29.991Z,84.01
2018-02-19T11:20:57.543Z,83.12
2018-02-19T11:23:25.244Z,83.25
2018-02-19T11:25:53.004Z,83.09
2018-02-19T11:28:20.655Z,83.69
2018-02-19T11:30:48.449Z,83.81
2018-02-19T11:33:16.008Z,84.00
2018-02-19T11:35:43.599Z,84.23
2018-02-19T11:38:11.266Z,83.53
2018-02-19T11:40:38.897Z,84.80
2018-02-19T11:43:06.523Z,85.46
2018-02-19T11:45:34.138Z,85.31
2018-02-19T11:48:01.865Z,85.51
2018-02-19T11:50:29.432Z,85.07
2018-02-19T11:52:57.093Z,85.15
2018-02-19T11:55:24.668Z,84.68
2018-02-19T11:57:52.437Z,84.92
2018-02-19T12:00:20.006Z,84.93
2018-02-19T12:02:47.564Z,85.15
2018-02-19T12:05:15.138Z,85.11
2018-02-19T12:07:42.810Z,85.46
2018-02-19T12:10:10.427Z,84.82
2018-02-19T12:12:37.990Z,85.48
2018-02-19T12:15:05.674Z,85.19
2018-02-19T12:17:33.296Z,85.64
2018-02-19T12:20:01.101Z,84.94
2018-02-19T12:22:28.918Z,84.52
2018-02-19T12:24:56.470Z,84.44
2018-02-19T12:27:24.254Z,84.29
2018-02-19T12:29:51.824Z,83.46
2018-02-19T12:32:19.394Z,83.93
2018-02-19T12:34:47.208Z,83.07
2018-02-19T12:37:14.786Z,83.71
2018-02-19T12:39:42.393Z,83.39
2018-02-19T12:42:10.024Z,83.91
2018-02-19T12:44:37.669Z,83.97
2018-02-19T12:47:05.234Z,82.97
2018-02-19T12:49:33.016Z,83.51
2018-02-19T12:52:00.621Z,83.04
2018-02-19T12:54:28.352Z,83.86
2018-02-19T12:56:55.926Z,82.78
2018-02-19T12:59:23.690Z,82.84
2018-02-19T13:01:51.342Z,83.39
2018-02-19T13:04:18.898Z,82.87
2018-02-19T13:06:46.464Z,83.45
2018-02-19T13:09:14.260Z,83.77
2018-02-19T13:11:41.978Z,83.05
2018-02-19T13:14:09.551Z,82.58
2018-02-19T13:16:37.133Z,83.69
2018-02-19T13:19:04.755Z,84.13
2018-02-19T13:21:32.551Z,83.64
2018-02-19T13:24:00.118Z,83.59
2018-02-19T13:26:27.696Z,83.86
2018-02-19T13:28:55.262Z,82.71
2018-02-19T13:31:23.013Z,83.47
2018-02-19T13:33:50.754Z,84.59
2018-02-19T13:36:18.369Z,84.36
2018-02-19T13:38:45.920Z,83.61
2018-02-19T13:41:13.673Z,84.49
2018-02-19T13:43:41.262Z,84.58
2018-02-19T13:46:09.030Z,84.59
2018-02-19T13:48:36.822Z,84.30
2018-02-19T13:51:04.384Z,84.58
2018-02-19T13:53:32.184Z,84.46
2018-02-19T13:56:00.006Z,83.92
2018-02-19T13:58:27.607Z,84.54
2018-02-19T14:00:55.331Z,83.91
2018-02-19T14:03:22.961Z,84.39
2018-02-19T14:05:50.532Z,84.52
2018-02-19T14:08:18.253Z,84.81
2018-02-19T14:10:46.112Z,84.50
2018-02-19T14:13:13.933Z,84.07
2018-02-19T14:15:41.534Z,84.19
2018-02-19T14:18:09.134Z,84.41
2018-02-19T14:20:36.678Z,83.95
2018-02-19T14:23:04.411Z,84.28
2018-02-19T14:25:31.970Z,83.27
2018-02-19T14:27:59.623Z,83.70
2018-02-19T14:30:27.248Z,83.66
2018-02-19T14:32:54.796Z,84.07
2018-02-19T14:35:22.406Z,84.12
2018-02-19T14:37:50.210Z,83.53
2018-02-19T14:40:18.030Z,84.10
2018-02-19T14:42:45.600Z,84.55
2018-02-19T14:45:13.465Z,84.69
2018-02-19T14:47:41.094Z,85.18
2018-02-19T14:50:08.651Z,84.56
2018-02-19T14:52:36.519Z,84.94
2018-02-19T14:55:04.338Z,85.02
2018-02-19T14:57:31.905Z,84.86
2018-02-19T15:00:00.325Z,85.98
2018-02-19T15:02:28.162Z,85.71
2018-02-19T15:04:55.733Z,85.46
2018-02-19T15:07:23.304Z,85.34
2018-02-19T15:09:51.052Z,85.67
2018-02-19T15:12:18.615Z,85.50
2018-02-19T15:14:46.226Z,85.37
2018-02-19T15:17:13.796Z,85.19
2018-02-19T15:19:41.368Z,85.23
2018-02-19T15:22:08.930Z,84.50
2018-02-19T15:24:36.482Z,84.80
2018-02-19T15:27:04.273Z,84.92
2018-02-19T15:29:31.935Z,85.07
2018-02-19T15:31:59.519Z,85.12
2018-02-19T15:34:27.094Z,85.31
2018-02-19T15:36:54.655Z,85.70
2018-02-19T15:39:22.242Z,85.35
2018-02-19T15:41:49.797Z,85.72
2018-02-19T15:44:17.598Z,85.98
2018-02-19T15:46:45.179Z,86.08
2018-02-19T15:49:12.748Z,85.83
2018-02-19T15:51:40.312Z,85.65
2018-02-19T15:54:07.870Z,85.83
2018-02-19T15:56:35.446Z,85.51
2018-02-19T15:59:03.205Z,86.17
2018-02-19T16:01:30.902Z,85.96
2018-02-19T16:03:58.608Z,85.60
2018-02-19T16:06:26.281Z,85.69
2018-02-19T16:08:54.040Z,85.10
2018-02-19T16:11:21.610Z,85.63
2018-02-19T16:13:49.414Z,85.68
2018-02-19T16:16:16.966Z,84.92
2018-02-19T16:18:44.752Z,85.10
2018-02-19T16:21:12.331Z,85.50
2018-02-19T16:23:40.124Z,85.99
2018-02-19T16:26:07.696Z,86.55
2018-02-19T16:28:35.312Z,86.22
2018-02-19T16:31:02.946Z,85.51
2018-02-19T16:33:30.759Z,85.68
2018-02-19T16:35:58.368Z,85.57
2018-02-19T16:38:25.943Z,86.18
2018-02-19T16:40:53.498Z,86.01
2018-02-19T16:43:21.232Z,85.92
2018-02-19T16:45:48.845Z,85.68
2018-02-19T16:48:16.665Z,85.48
2018-02-19T16:50:44.483Z,85.87
2018-02-19T16:53:12.202Z,85.74
2018-02-19T16:55:40.020Z,85.98
2018-02-19T16:58:07.582Z,86.10
2018-02-19T17:00:35.151Z,86.01
2018-02-19T17:03:02.769Z,86.23
2018-02-19T17:05:30.399Z,86.13
2018-02-19T17:07:58.210Z,86.80
2018-02-19T17:10:25.765Z,86.25
2018-02-19T17:12:53.508Z,86.25
2018-02-19T17:15:21.131Z,86.50
2018-02-19T17:17:48.701Z,86.52
2018-02-19T17:20:16.269Z,86.89
2018-02-19T17:22:43.882Z,86.75
2018-02-19T17:25:11.530Z,86.66
2018-02-19T17:27:39.091Z,87.05
2018-02-19T17:30:06.847Z,87.31
2018-02-19T17:32:34.410Z,86.87
2018-02-19T17:35:02.100Z,86.75
2018-02-19T17:37:29.692Z,86.73
2018-02-19T17:39:57.545Z,86.99
2018-02-19T17:42:25.106Z,86.85
2018-02-19T17:44:52.674Z,87.20
2018-02-19T17:47:20.227Z,87.05
2018-02-19T17:49:48.015Z,86.83
2018-02-19T17:52:15.637Z,86.73
2018-02-19T17:54:43.333Z,86.83
2018-02-19T17:57:10.894Z,86.90
2018-02-19T17:59:38.688Z,86.84
2018-02-19T18:02:06.248Z,86.62
2018-02-19T18:04:34.159Z,87.09
2018-02-19T18:07:01.734Z,87.06
2018-02-19T18:09:29.290Z,86.93
2018-02-19T18:11:57.078Z,86.88
2018-02-19T18:14:24.688Z,87.37
2018-02-19T18:16:52.515Z,87.41
2018-02-19T18:19:20.070Z,87.50
2018-02-19T18:21:47.651Z,87.12
2018-02-19T18:24:15.226Z,87.24
2018-02-19T18:26:42.988Z,87.35
2018-02-19T18:29:10.805Z,87.19
2018-02-19T18:31:38.398Z,87.27
2018-02-19T18:34:05.995Z,87.08
2018-02-19T18:36:33.562Z,87.41
2018-02-19T18:39:01.210Z,87.11
2018-02-19T18:41:28.994Z,87.36
2018-02-19T18:43:56.677Z,87.54
2018-02-19T18:46:24.298Z,87.21
2018-02-19T18:48:51.948Z,87.42
2018-02-19T18:51:19.514Z,87.79
2018-02-19T18:53:47.178Z,87.81
2018-02-19T18:56:14.787Z,87.05
2018-02-19T18:58:42.353Z,87.21
2018-02-19T19:01:09.978Z,87.43
2018-02-19T19:03:37.564Z,87.45
2018-02-19T19:06:05.376Z,87.48
2018-02-19T19:08:44.693Z,87.49
2018-02-19T19:11:12.252Z,87.23
2018-02-19T19:13:39.819Z,87.34
2018-02-19T19:16:07.372Z,87.17
2018-02-19T19:18:35.026Z,87.19
2018-02-19T19:21:02.822Z,87.08
2018-02-19T19:23:30.542Z,87.33
2018-02-19T19:25:58.120Z,87.36
2018-02-19T19:28:25.769Z,87.37
2018-02-19T19:30:53.597Z,87.33
2018-02-19T19:33:21.414Z,87.66
2018-02-19T19:35:48.971Z,87.48
2018-02-19T19:38:16.540Z,87.42
2018-02-19T19:40:44.106Z,87.48
2018-02-19T19:43:11.986Z,87.68
2018-02-19T19:45:39.614Z,87.26
2018-02-19T19:48:07.186Z,87.49
2018-02-19T19:50:34.770Z,87.37
2018-02-19T19:53:02.338Z,87.15
2018-02-19T19:55:30.182Z,87.52
2018-02-19T19:57:57.900Z,87.07
2018-02-19T20:00:25.460Z,87.28
2018-02-19T20:02:53.030Z,87.10
2018-02-19T20:05:20.575Z,87.79
2018-02-19T20:07:48.202Z,87.21
2018-02-19T20:10:15.758Z,87.53
2018-02-19T20:12:43.328Z,87.30
2018-02-19T20:15:10.908Z,87.52
2018-02-19T20:17:38.474Z,87.16
2018-02-19T20:20:06.145Z,87.96
2018-02-19T20:22:33.714Z,87.64
2018-02-19T20:25:01.598Z,87.54
2018-02-19T20:27:29.158Z,88.03
2018-02-19T20:29:56.825Z,88.00
2018-02-19T20:32:24.402Z,87.59
2018-02-19T20:34:51.966Z,87.71
2018-02-19T20:37:19.782Z,87.16
2018-02-19T20:39:47.598Z,87.41
2018-02-19T20:42:15.210Z,87.58
2018-02-19T20:44:42.766Z,87.65
2018-02-19T20:47:10.322Z,87.49
2018-02-19T20:49:37.893Z,87.08
2018-02-19T20:52:05.455Z,87.64
2018-02-19T20:54:33.181Z,87.56
2018-02-19T20:57:00.738Z,87.69
2018-02-19T20:59:28.363Z,87.18
2018-02-19T21:01:56.160Z,87.39
2018-02-19T21:04:23.754Z,87.17
2018-02-19T21:06:51.498Z,87.10
2018-02-19T21:09:19.128Z,87.58
2018-02-19T21:11:46.690Z,87.31
2018-02-19T21:14:14.408Z,87.25
2018-02-19T21:16:42.269Z,87.32
2018-02-19T21:19:09.840Z,87.65
2018-02-19T21:21:37.583Z,87.50
2018-02-19T21:24:05.297Z,87.62
2018-02-19T21:26:33.016Z,87.55
2018-02-19T21:29:00.731Z,87.57
2018-02-19T21:31:28.290Z,87.03
2018-02-19T21:33:55.915Z,86.54
2018-02-19T21:36:23.712Z,86.77
2018-02-19T21:38:51.255Z,87.13
2018-02-19T21:41:18.823Z,86.93
2018-02-19T21:43:46.367Z,86.66
2018-02-19T21:46:13.931Z,86.27
2018-02-19T21:48:41.755Z,86.31
2018-02-19T21:51:09.379Z,85.47
2018-02-19T21:53:36.942Z,85.76
2018-02-19T21:56:04.573Z,85.81
2018-02-19T21:58:32.126Z,86.31
2018-02-19T22:00:59.701Z,86.09
2018-02-19T22:03:27.278Z,86.29
2018-02-19T22:05:54.996Z,86.38
2018-02-19T22:08:22.639Z,86.34
2018-02-19T22:10:50.238Z,85.96
2018-02-19T22:13:17.793Z,85.67
2018-02-19T22:15:45.388Z,85.95
2018-02-19T22:18:12.950Z,86.25
2018-02-19T22:20:40.518Z,85.07
2018-02-19T22:23:08.078Z,85.39
2018-02-19T22:25:35.682Z,85.34
2018-02-19T22:28:03.234Z,85.25
2018-02-19T22:30:30.770Z,85.54
2018-02-19T22:32:58.330Z,85.02
2018-02-19T22:35:25.890Z,85.13
2018-02-19T22:37:53.456Z,85.28
2018-02-19T22:40:21.016Z,85.19
2018-02-19T22:42:48.628Z,85.32
2018-02-19T22:45:16.181Z,85.70
2018-02-19T22:47:43.748Z,85.55
2018-02-19T22:50:11.318Z,85.61
2018-02-19T22:52:38.874Z,85.75
2018-02-19T22:55:06.450Z,86.15
2018-02-19T22:57:34.015Z,86.08
2018-02-19T23:00:01.628Z,85.73
2018-02-19T23:02:29.182Z,85.94
2018-02-19T23:04:56.843Z,85.61
2018-02-19T23:07:24.416Z,85.83
2018-02-19T23:09:51.985Z,86.03
2018-02-19T23:12:19.550Z,85.78
2018-02-19T23:14:47.107Z,86.20
2018-02-19T23:17:14.829Z,85.84
2018-02-19T23:19:43.253Z,86.10
2018-02-19T23:22:11.158Z,86.14
2018-02-19T23:24:38.722Z,86.17
2018-02-19T23:27:06.283Z,86.50
2018-02-19T23:29:33.850Z,86.59
2018-02-19T23:32:01.407Z,86.23
2018-02-19T23:34:29.038Z,86.01
2018-02-19T23:36:57.381Z,86.22
2018-02-19T23:39:25.086Z,86.74
2018-02-19T23:41:52.654Z,86.08
2018-02-19T23:44:20.214Z,85.97
2018-02-19T23:46:47.784Z,86.07
2018-02-19T23:49:15.354Z,86.10
2018-02-19T23:51:42.941Z,85.40
2018-02-19T23:54:20.407Z,85.67
2018-02-19T23:56:48.026Z,85.49
2018-02-19T23:59:15.586Z,85.63
